Time;durP1;ratioP1;P1;durP2;ratioP2;P2;SDS_P1;SDS_P2;PMS_P1;PMS_P2;Temp;Humidity;BMP_temperature;BMP_pressure;BME280_temperature;BME280_humidity;BME280_pressure;Samples;Min_cycle;Max_cycle;Signal;HPM_P1;HPM_P2
2022/11/25 00:02:11;;;;;;;;;;;19.10;43.00;;;;;;5032345;28;19924;-70
2022/11/25 00:04:38;;;;;;;;;;;19.10;43.00;;;;;;5045044;28;19984;-71
2022/11/25 00:07:04;;;;;;;;;;;19.10;43.00;;;;;;5051478;28;19908;-71
2022/11/25 00:09:31;;;;;;;;;;;19.10;43.00;;;;;;5052960;28;19944;-70
2022/11/25 00:11:58;;;;;;;;;;;19.10;43.00;;;;;;5067258;28;19909;-68
2022/11/25 00:14:26;;;;;;;;;;;19.10;43.10;;;;;;5046575;28;19913;-71
2022/11/25 00:16:53;;;;;;;;;;;19.10;43.10;;;;;;5053476;28;19980;-71
2022/11/25 00:19:20;;;;;;;;;;;19.10;43.10;;;;;;5042952;28;19940;-70
2022/11/25 00:21:46;;;;;;;;;;;19.10;43.10;;;;;;5047140;28;19923;-70
2022/11/25 00:24:14;;;;;;;;;;;19.10;43.10;;;;;;5052886;28;19909;-70
2022/11/25 00:26:40;;;;;;;;;;;19.10;43.10;;;;;;5049364;28;19936;-70
2022/11/25 00:29:07;;;;;;;;;;;19.10;43.10;;;;;;5066820;28;19909;-70
2022/11/25 00:31:36;;;;;;;;;;;19.10;43.10;;;;;;5044532;28;19919;-70
2022/11/25 00:34:03;;;;;;;;;;;19.10;43.00;;;;;;5046114;28;19915;-70
2022/11/25 00:36:30;;;;;;;;;;;19.10;43.10;;;;;;5037829;28;19925;-70
2022/11/25 00:38:57;;;;;;;;;;;19.10;43.00;;;;;;5054202;28;19920;-70
2022/11/25 00:46:55;;;;;;;;;;;19.10;43.00;;;;;;5040081;28;19940;-70
2022/11/25 00:49:21;;;;;;;;;;;19.10;43.10;;;;;;5036241;28;19943;-70
2022/11/25 00:51:48;;;;;;;;;;;19.10;43.10;;;;;;5060493;28;19915;-70
2022/11/25 00:54:15;;;;;;;;;;;19.10;43.10;;;;;;5077900;28;19913;-70
2022/11/25 00:56:41;;;;;;;;;;;19.10;43.00;;;;;;5054054;28;19910;-70
2022/11/25 00:59:08;;;;;;;;;;;19.10;43.00;;;;;;5028316;28;19914;-70
2022/11/25 01:01:35;;;;;;;;;;;19.10;43.00;;;;;;5042805;28;19909;-70
2022/11/25 01:04:03;;;;;;;;;;;19.10;43.10;;;;;;5051846;28;19985;-70
2022/11/25 01:06:30;;;;;;;;;;;19.10;43.10;;;;;;5064080;28;19909;-71
2022/11/25 01:08:57;;;;;;;;;;;19.10;43.00;;;;;;5043653;28;19918;-70
2022/11/25 01:11:23;;;;;;;;;;;19.10;43.00;;;;;;5046681;28;19909;-71
2022/11/25 01:13:52;;;;;;;;;;;19.10;43.00;;;;;;5046638;28;19932;-70
2022/11/25 01:16:19;;;;;;;;;;;19.10;43.00;;;;;;5054795;28;19913;-70
2022/11/25 01:18:46;;;;;;;;;;;19.10;43.00;;;;;;5043732;28;19913;-70
2022/11/25 01:21:14;;;;;;;;;;;19.10;43.00;;;;;;5050795;28;19921;-70
2022/11/25 01:23:41;;;;;;;;;;;19.10;43.00;;;;;;5052594;28;19940;-70
2022/11/25 01:26:08;;;;;;;;;;;19.10;43.00;;;;;;5064447;28;19932;-70
2022/11/25 01:28:35;;;;;;;;;;;19.10;43.00;;;;;;5061616;28;19972;-70
2022/11/25 01:31:02;;;;;;;;;;;19.10;43.00;;;;;;5044950;28;19940;-70
2022/11/25 01:33:31;;;;;;;;;;;19.10;43.00;;;;;;5046590;28;19947;-70
2022/11/25 01:36:00;;;;;;;;;;;19.10;43.00;;;;;;5048152;28;19909;-70
2022/11/25 01:38:28;;;;;;;;;;;19.10;43.00;;;;;;5047113;28;19913;-70
2022/11/25 01:40:55;;;;;;;;;;;19.10;43.00;;;;;;5060701;28;19915;-70
2022/11/25 01:43:22;;;;;;;;;;;19.10;43.00;;;;;;5028139;28;19910;-70
2022/11/25 01:45:49;;;;;;;;;;;19.10;43.00;;;;;;5038950;28;19932;-69
2022/11/25 01:48:16;;;;;;;;;;;19.10;43.00;;;;;;5046498;28;19913;-71
2022/11/25 01:50:43;;;;;;;;;;;19.10;43.00;;;;;;5055565;28;19913;-70
2022/11/25 01:53:10;;;;;;;;;;;19.10;43.00;;;;;;5066678;28;19909;-71
2022/11/25 01:55:39;;;;;;;;;;;19.10;43.00;;;;;;5050121;28;19932;-70
2022/11/25 01:58:06;;;;;;;;;;;19.10;43.00;;;;;;5046367;28;19985;-70
2022/11/25 02:00:33;;;;;;;;;;;19.10;43.00;;;;;;5060332;28;19932;-70
2022/11/25 02:03:00;;;;;;;;;;;19.10;43.00;;;;;;5034222;28;19976;-70
2022/11/25 02:05:27;;;;;;;;;;;19.10;43.00;;;;;;5037336;28;19909;-70
2022/11/25 02:07:54;;;;;;;;;;;19.10;42.90;;;;;;5043133;28;19932;-71
2022/11/25 02:10:21;;;;;;;;;;;19.10;43.00;;;;;;5043971;28;19936;-71
2022/11/25 02:12:49;;;;;;;;;;;19.10;43.00;;;;;;5038840;28;19941;-70
2022/11/25 02:15:16;;;;;;;;;;;19.10;43.00;;;;;;5041461;28;19965;-71
2022/11/25 02:17:43;;;;;;;;;;;19.10;43.00;;;;;;5060156;28;19932;-70
2022/11/25 02:20:10;;;;;;;;;;;19.10;42.90;;;;;;5032868;28;19913;-71
2022/11/25 02:22:40;;;;;;;;;;;19.10;43.00;;;;;;5042388;28;19916;-71
2022/11/25 02:25:11;;;;;;;;;;;19.10;43.00;;;;;;5046950;28;19972;-71
2022/11/25 02:27:38;;;;;;;;;;;19.10;42.90;;;;;;5042943;28;19917;-70
2022/11/25 02:30:06;;;;;;;;;;;19.10;43.00;;;;;;5059992;28;19941;-71
2022/11/25 02:32:32;;;;;;;;;;;19.10;43.00;;;;;;5030215;28;19909;-70
2022/11/25 02:34:59;;;;;;;;;;;19.10;43.00;;;;;;5029910;28;19910;-70
2022/11/25 02:37:26;;;;;;;;;;;19.10;43.00;;;;;;5043082;28;19936;-72
2022/11/25 02:39:53;;;;;;;;;;;19.10;43.00;;;;;;5057277;28;19918;-70
2022/11/25 02:42:21;;;;;;;;;;;19.10;43.00;;;;;;5042272;28;19932;-70
2022/11/25 02:44:48;;;;;;;;;;;19.10;43.00;;;;;;5049732;28;19921;-71
2022/11/25 02:47:15;;;;;;;;;;;19.10;42.90;;;;;;5042521;28;19935;-71
2022/11/25 02:49:41;;;;;;;;;;;19.10;42.90;;;;;;5043065;28;19910;-70
2022/11/25 02:52:08;;;;;;;;;;;19.10;42.90;;;;;;5027557;28;19941;-70
2022/11/25 02:54:35;;;;;;;;;;;19.10;43.00;;;;;;5049723;28;19913;-70
2022/11/25 02:57:02;;;;;;;;;;;19.10;42.90;;;;;;5029777;28;19924;-72
2022/11/25 02:59:30;;;;;;;;;;;19.10;42.90;;;;;;5022931;28;19937;-70
2022/11/25 03:01:57;;;;;;;;;;;19.10;42.90;;;;;;5059032;28;19915;-71
2022/11/25 03:04:23;;;;;;;;;;;19.10;42.90;;;;;;5044742;28;19914;-70
2022/11/25 03:06:50;;;;;;;;;;;19.10;42.90;;;;;;5055751;28;19933;-70
2022/11/25 03:09:17;;;;;;;;;;;19.10;42.90;;;;;;5041947;28;19975;-70
2022/11/25 03:14:30;;;;;;;;;;;19.10;42.90;;;;;;5049011;28;19913;-70
2022/11/25 03:16:56;;;;;;;;;;;19.10;42.90;;;;;;5023144;28;19916;-70
2022/11/25 03:19:23;;;;;;;;;;;19.10;42.90;;;;;;5022217;28;19940;-71
2022/11/25 03:21:50;;;;;;;;;;;19.10;42.90;;;;;;5037421;28;19913;-70
2022/11/25 03:24:17;;;;;;;;;;;19.10;42.90;;;;;;5041236;28;19909;-71
2022/11/25 03:26:43;;;;;;;;;;;19.10;42.90;;;;;;5040927;28;19909;-70
2022/11/25 03:29:10;;;;;;;;;;;19.10;42.90;;;;;;5042032;28;19916;-70
2022/11/25 03:31:39;;;;;;;;;;;19.10;42.90;;;;;;5056704;28;19976;-70
2022/11/25 03:34:06;;;;;;;;;;;19.10;42.90;;;;;;5046419;28;19913;-70
2022/11/25 03:36:33;;;;;;;;;;;19.10;42.90;;;;;;5041041;28;19913;-70
2022/11/25 03:38:59;;;;;;;;;;;19.10;42.90;;;;;;5026663;28;19925;-71
2022/11/25 03:41:26;;;;;;;;;;;19.10;42.80;;;;;;5054322;28;19909;-70
2022/11/25 03:43:53;;;;;;;;;;;19.10;42.90;;;;;;5043485;28;19924;-70
2022/11/25 03:46:19;;;;;;;;;;;19.10;42.80;;;;;;5041079;28;19929;-70
2022/11/25 03:48:48;;;;;;;;;;;19.10;42.80;;;;;;5040952;28;19913;-70
2022/11/25 03:51:14;;;;;;;;;;;19.10;42.80;;;;;;5047216;28;19967;-71
2022/11/25 03:53:41;;;;;;;;;;;19.10;42.80;;;;;;5041308;28;19948;-70
2022/11/25 03:56:08;;;;;;;;;;;19.10;42.80;;;;;;5040541;28;19913;-71
2022/11/25 03:58:35;;;;;;;;;;;19.10;42.90;;;;;;5042095;28;19909;-70
2022/11/25 04:01:02;;;;;;;;;;;19.10;42.80;;;;;;5048585;28;19919;-70
2022/11/25 04:03:29;;;;;;;;;;;19.10;42.80;;;;;;5057921;28;19981;-70
2022/11/25 04:05:57;;;;;;;;;;;19.10;42.80;;;;;;5040066;28;19916;-70
2022/11/25 04:08:24;;;;;;;;;;;19.10;42.80;;;;;;5041765;28;19909;-70
2022/11/25 04:10:50;;;;;;;;;;;19.10;42.80;;;;;;5034462;28;19917;-71
2022/11/25 04:13:16;;;;;;;;;;;19.10;42.80;;;;;;5037949;28;19921;-70
2022/11/25 04:15:46;;;;;;;;;;;19.10;42.80;;;;;;5050465;28;19917;-71
2022/11/25 04:18:13;;;;;;;;;;;19.00;42.70;;;;;;5035863;28;19916;-70
2022/11/25 04:20:40;;;;;;;;;;;19.10;42.80;;;;;;5050029;28;19944;-70
2022/11/25 04:23:08;;;;;;;;;;;19.10;42.80;;;;;;5051178;28;19978;-70
2022/11/25 04:25:35;;;;;;;;;;;19.10;42.80;;;;;;5044714;28;19909;-71
2022/11/25 04:28:02;;;;;;;;;;;19.10;42.80;;;;;;5040559;28;19909;-70
2022/11/25 04:30:29;;;;;;;;;;;19.10;42.80;;;;;;5041001;28;19916;-70
2022/11/25 04:32:55;;;;;;;;;;;19.10;42.80;;;;;;5041043;28;19913;-70
2022/11/25 04:35:22;;;;;;;;;;;19.10;42.80;;;;;;5040101;28;19913;-71
2022/11/25 04:37:49;;;;;;;;;;;19.10;42.80;;;;;;5041136;28;19914;-70
2022/11/25 04:40:17;;;;;;;;;;;19.10;42.80;;;;;;5035291;28;19948;-70
2022/11/25 04:42:44;;;;;;;;;;;19.10;43.40;;;;;;5033131;28;19937;-70
2022/11/25 04:45:11;;;;;;;;;;;19.10;42.80;;;;;;5023123;28;19921;-70
2022/11/25 04:47:38;;;;;;;;;;;19.10;42.80;;;;;;5058010;28;19984;-71
2022/11/25 04:50:05;;;;;;;;;;;19.10;42.80;;;;;;5057006;28;19931;-71
2022/11/25 04:52:33;;;;;;;;;;;19.10;42.80;;;;;;5040449;28;19913;-70
2022/11/25 04:55:00;;;;;;;;;;;19.10;42.80;;;;;;5039867;28;19913;-71
2022/11/25 04:57:28;;;;;;;;;;;19.10;42.80;;;;;;5040482;28;19913;-70
2022/11/25 04:59:53;;;;;;;;;;;19.10;42.80;;;;;;5060389;28;19913;-70
2022/11/25 05:02:21;;;;;;;;;;;19.10;42.90;;;;;;5036018;28;19945;-70
2022/11/25 05:04:48;;;;;;;;;;;19.10;42.80;;;;;;5037590;28;19913;-70
2022/11/25 05:07:15;;;;;;;;;;;19.10;42.80;;;;;;5038182;28;19932;-70
2022/11/25 05:09:42;;;;;;;;;;;19.10;42.80;;;;;;5037225;28;19914;-70
2022/11/25 05:12:09;;;;;;;;;;;19.10;42.80;;;;;;5038013;28;19913;-70
2022/11/25 05:14:39;;;;;;;;;;;19.10;42.80;;;;;;5038451;28;20140;-71
2022/11/25 05:17:06;;;;;;;;;;;19.10;43.40;;;;;;5039863;28;19909;-72
2022/11/25 05:19:34;;;;;;;;;;;19.10;43.40;;;;;;5057558;28;19976;-71
2022/11/25 05:22:01;;;;;;;;;;;19.10;42.80;;;;;;5029404;28;19932;-70
2022/11/25 05:24:28;;;;;;;;;;;19.00;42.70;;;;;;5040253;28;19979;-72
2022/11/25 05:26:55;;;;;;;;;;;19.10;42.80;;;;;;5056245;28;19916;-71
2022/11/25 05:29:22;;;;;;;;;;;19.00;42.70;;;;;;5044988;28;19916;-71
2022/11/25 05:31:50;;;;;;;;;;;19.10;42.80;;;;;;5055032;28;19913;-71
2022/11/25 05:34:17;;;;;;;;;;;19.10;42.80;;;;;;5022484;28;19909;-70
2022/11/25 05:36:43;;;;;;;;;;;19.10;42.80;;;;;;5047743;28;19947;-71
2022/11/25 05:39:10;;;;;;;;;;;19.00;43.20;;;;;;5039994;28;19909;-71
2022/11/25 05:41:37;;;;;;;;;;;19.10;42.70;;;;;;5052421;28;19914;-71
2022/11/25 05:44:04;;;;;;;;;;;19.10;42.80;;;;;;5035858;28;19910;-71
2022/11/25 05:46:31;;;;;;;;;;;19.00;42.60;;;;;;5057165;28;19928;-70
2022/11/25 05:48:59;;;;;;;;;;;19.10;42.70;;;;;;5061977;28;19940;-70
2022/11/25 05:51:29;;;;;;;;;;;19.10;42.70;;;;;;5039988;28;19924;-71
2022/11/25 05:53:55;;;;;;;;;;;19.10;42.70;;;;;;5060074;28;19920;-70
2022/11/25 05:56:22;;;;;;;;;;;19.00;42.60;;;;;;5057330;28;19913;-71
2022/11/25 05:58:49;;;;;;;;;;;19.00;42.60;;;;;;5049604;28;19996;-71
2022/11/25 06:01:16;;;;;;;;;;;19.00;42.60;;;;;;5042704;28;19909;-71
2022/11/25 06:03:43;;;;;;;;;;;19.00;42.60;;;;;;5043412;28;19936;-70
2022/11/25 06:06:11;;;;;;;;;;;19.00;42.60;;;;;;5043001;28;19919;-71
2022/11/25 06:08:38;;;;;;;;;;;19.00;42.60;;;;;;5059896;28;19989;-71
2022/11/25 06:11:05;;;;;;;;;;;19.10;42.70;;;;;;5041579;28;19924;-70
2022/11/25 06:13:32;;;;;;;;;;;19.00;42.60;;;;;;5024051;28;19917;-72
2022/11/25 06:15:59;;;;;;;;;;;19.00;42.60;;;;;;5044099;28;19916;-71
2022/11/25 06:18:25;;;;;;;;;;;19.00;42.60;;;;;;5065180;28;19916;-71
2022/11/25 06:20:56;;;;;;;;;;;19.00;42.60;;;;;;5073317;28;19989;-71
2022/11/25 06:23:24;;;;;;;;;;;19.00;42.60;;;;;;5053395;28;19909;-71
2022/11/25 06:25:51;;;;;;;;;;;19.00;42.60;;;;;;5042762;28;19913;-71
2022/11/25 06:28:18;;;;;;;;;;;19.10;42.70;;;;;;5046302;28;19916;-71
2022/11/25 06:30:45;;;;;;;;;;;19.00;42.60;;;;;;5055298;28;19945;-71
2022/11/25 06:33:11;;;;;;;;;;;19.00;42.60;;;;;;5069706;28;19931;-72
2022/11/25 06:35:38;;;;;;;;;;;19.00;42.60;;;;;;5069334;28;19913;-71
2022/11/25 06:38:05;;;;;;;;;;;19.00;42.60;;;;;;5057745;28;19915;-70
2022/11/25 06:40:33;;;;;;;;;;;19.10;42.70;;;;;;5059967;28;19947;-71
2022/11/25 06:43:00;;;;;;;;;;;19.10;42.70;;;;;;5057880;28;19909;-72
2022/11/25 06:45:27;;;;;;;;;;;19.10;42.70;;;;;;5050542;28;19916;-70
2022/11/25 06:47:54;;;;;;;;;;;19.00;42.60;;;;;;5047715;28;19909;-72
2022/11/25 06:50:20;;;;;;;;;;;19.00;42.60;;;;;;5062085;28;19912;-71
2022/11/25 06:52:47;;;;;;;;;;;19.00;42.60;;;;;;5063740;28;19913;-72
2022/11/25 06:55:14;;;;;;;;;;;19.00;42.60;;;;;;5025646;28;19914;-71
2022/11/25 06:57:42;;;;;;;;;;;19.00;42.60;;;;;;5025958;28;19916;-70
2022/11/25 07:00:09;;;;;;;;;;;19.10;42.70;;;;;;5023280;28;19910;-71
2022/11/25 07:02:36;;;;;;;;;;;19.00;42.60;;;;;;5053920;28;19971;-72
2022/11/25 07:05:03;;;;;;;;;;;19.00;42.60;;;;;;5038759;28;19948;-72
2022/11/25 07:07:30;;;;;;;;;;;19.00;42.60;;;;;;5057755;28;20019;-71
2022/11/25 07:09:56;;;;;;;;;;;19.00;42.60;;;;;;5059884;28;19909;-71
2022/11/25 07:12:23;;;;;;;;;;;19.00;42.60;;;;;;5053444;28;19974;-71
2022/11/25 07:14:52;;;;;;;;;;;19.00;42.60;;;;;;5051583;28;19909;-72
2022/11/25 07:17:18;;;;;;;;;;;19.00;42.60;;;;;;5044572;28;19920;-70
2022/11/25 07:19:45;;;;;;;;;;;19.00;42.60;;;;;;5057891;28;19931;-71
2022/11/25 07:22:12;;;;;;;;;;;19.10;42.70;;;;;;5065332;28;19916;-71
2022/11/25 07:24:38;;;;;;;;;;;19.00;42.60;;;;;;5054084;28;19931;-72
2022/11/25 07:27:05;;;;;;;;;;;19.00;42.60;;;;;;5049467;28;19919;-72
2022/11/25 07:29:34;;;;;;;;;;;19.10;42.70;;;;;;5048800;28;19916;-71
2022/11/25 07:32:02;;;;;;;;;;;19.10;42.70;;;;;;5054078;28;19909;-71
2022/11/25 07:34:29;;;;;;;;;;;19.00;42.60;;;;;;5044960;28;19972;-72
2022/11/25 07:36:55;;;;;;;;;;;19.10;42.70;;;;;;5045160;28;19932;-73
2022/11/25 07:39:22;;;;;;;;;;;19.10;42.60;;;;;;5052018;28;19935;-72
2022/11/25 07:41:49;;;;;;;;;;;19.00;42.50;;;;;;5050189;28;19924;-71
2022/11/25 07:44:16;;;;;;;;;;;19.00;42.50;;;;;;5076734;28;19909;-71
2022/11/25 07:46:43;;;;;;;;;;;19.00;42.50;;;;;;5042885;28;19917;-72
2022/11/25 07:49:12;;;;;;;;;;;19.00;42.50;;;;;;5048930;28;19909;-71
2022/11/25 07:51:39;;;;;;;;;;;19.00;42.50;;;;;;5031916;28;19914;-71
2022/11/25 07:54:06;;;;;;;;;;;19.00;42.50;;;;;;5052291;28;19909;-71
2022/11/25 07:56:33;;;;;;;;;;;19.10;42.60;;;;;;5043037;28;19939;-72
2022/11/25 07:59:00;;;;;;;;;;;19.00;42.00;;;;;;5041202;28;19909;-73
2022/11/25 08:01:27;;;;;;;;;;;19.00;42.50;;;;;;5052842;28;19972;-72
2022/11/25 08:03:54;;;;;;;;;;;19.00;42.50;;;;;;5066104;28;19988;-72
2022/11/25 08:06:23;;;;;;;;;;;19.10;42.60;;;;;;5051106;28;19909;-72
2022/11/25 08:08:51;;;;;;;;;;;19.10;42.60;;;;;;5047456;28;19909;-70
2022/11/25 08:11:19;;;;;;;;;;;19.10;42.60;;;;;;5054657;28;19984;-71
2022/11/25 08:13:46;;;;;;;;;;;19.10;42.60;;;;;;5045962;28;19913;-72
2022/11/25 08:16:13;;;;;;;;;;;19.10;42.60;;;;;;5046900;28;19912;-70
2022/11/25 08:18:39;;;;;;;;;;;19.10;42.60;;;;;;5047744;28;19972;-70
2022/11/25 08:21:07;;;;;;;;;;;19.10;42.70;;;;;;5052245;28;19909;-70
2022/11/25 08:23:36;;;;;;;;;;;19.10;42.60;;;;;;5038512;28;19976;-72
2022/11/25 08:26:03;;;;;;;;;;;19.10;42.60;;;;;;5046786;28;19935;-71
2022/11/25 08:28:30;;;;;;;;;;;19.10;42.70;;;;;;5078574;28;19931;-72
2022/11/25 08:31:01;;;;;;;;;;;19.10;42.70;;;;;;5047052;28;19980;-73
2022/11/25 08:33:28;;;;;;;;;;;19.10;42.70;;;;;;5050242;28;19936;-72
2022/11/25 08:35:54;;;;;;;;;;;19.10;42.70;;;;;;5048505;28;19913;-72
2022/11/25 08:38:21;;;;;;;;;;;19.20;42.80;;;;;;5046974;28;19972;-72
2022/11/25 08:40:49;;;;;;;;;;;19.10;42.70;;;;;;5052096;28;19909;-71
2022/11/25 08:43:16;;;;;;;;;;;19.20;42.80;;;;;;5040722;28;19917;-69
2022/11/25 08:45:43;;;;;;;;;;;19.10;42.70;;;;;;5052646;28;19976;-72
2022/11/25 08:48:09;;;;;;;;;;;19.10;42.70;;;;;;5058602;28;19947;-70
2022/11/25 08:50:36;;;;;;;;;;;19.10;42.70;;;;;;5048529;28;19976;-68
2022/11/25 08:53:04;;;;;;;;;;;19.20;42.80;;;;;;5073813;28;19909;-70
2022/11/25 08:55:31;;;;;;;;;;;19.20;42.80;;;;;;5051003;28;19913;-69
2022/11/25 08:57:59;;;;;;;;;;;19.20;42.80;;;;;;5067174;28;19909;-69
2022/11/25 09:00:26;;;;;;;;;;;19.20;42.80;;;;;;5065772;28;19909;-69
2022/11/25 09:02:53;;;;;;;;;;;19.20;42.80;;;;;;5057203;28;19913;-70
2022/11/25 09:05:20;;;;;;;;;;;19.20;42.80;;;;;;5040972;28;19921;-70
2022/11/25 09:07:46;;;;;;;;;;;19.20;42.80;;;;;;5058011;28;19909;-69
2022/11/25 09:10:14;;;;;;;;;;;19.20;42.80;;;;;;5056306;28;19937;-69
2022/11/25 09:12:40;;;;;;;;;;;19.20;42.80;;;;;;5054057;28;19935;-69
2022/11/25 09:15:10;;;;;;;;;;;19.20;42.80;;;;;;5069663;28;19908;-70
2022/11/25 09:17:37;;;;;;;;;;;19.20;42.80;;;;;;5045606;28;19932;-72
2022/11/25 09:20:04;;;;;;;;;;;19.20;42.80;;;;;;5059213;28;19948;-71
2022/11/25 09:22:31;;;;;;;;;;;19.20;42.80;;;;;;5057123;28;19933;-72
2022/11/25 09:24:58;;;;;;;;;;;19.20;42.80;;;;;;5058487;28;19913;-71
2022/11/25 09:27:24;;;;;;;;;;;19.20;42.80;;;;;;5048831;28;19936;-71
2022/11/25 09:29:51;;;;;;;;;;;19.20;42.80;;;;;;5043281;28;19909;-71
2022/11/25 09:32:19;;;;;;;;;;;19.20;42.80;;;;;;5033278;28;19921;-72
2022/11/25 09:34:46;;;;;;;;;;;19.20;42.80;;;;;;5050243;28;19932;-71
2022/11/25 09:37:13;;;;;;;;;;;19.20;42.80;;;;;;5043503;28;19916;-71
2022/11/25 09:39:40;;;;;;;;;;;19.20;42.90;;;;;;5051414;28;19947;-70
2022/11/25 09:47:47;;;;;;;;;;;19.30;42.90;;;;;;5062551;28;19917;-70
2022/11/25 09:50:17;;;;;;;;;;;19.20;42.80;;;;;;5069055;28;19916;-69
2022/11/25 09:52:45;;;;;;;;;;;19.30;42.90;;;;;;5042846;28;19925;-69
2022/11/25 09:55:13;;;;;;;;;;;19.30;42.90;;;;;;5071642;28;19915;-70
2022/11/25 09:57:44;;;;;;;;;;;19.30;42.90;;;;;;5070810;28;19920;-70
2022/11/25 10:00:12;;;;;;;;;;;19.30;42.90;;;;;;5037962;28;19916;-71
2022/11/25 10:02:39;;;;;;;;;;;19.30;42.90;;;;;;5060414;28;19915;-68
2022/11/25 10:05:09;;;;;;;;;;;19.30;42.90;;;;;;5046029;28;19910;-69
2022/11/25 10:07:37;;;;;;;;;;;19.30;42.90;;;;;;5075939;28;19913;-69
2022/11/25 10:10:04;;;;;;;;;;;19.30;42.90;;;;;;5071465;28;19917;-73
2022/11/25 10:12:32;;;;;;;;;;;19.30;42.90;;;;;;5051945;28;19968;-69
2022/11/25 10:14:59;;;;;;;;;;;19.30;42.90;;;;;;5044646;28;19914;-70
2022/11/25 10:17:29;;;;;;;;;;;19.30;42.90;;;;;;5064669;28;19910;-72
2022/11/25 10:19:57;;;;;;;;;;;19.30;42.90;;;;;;5048838;28;19936;-71
2022/11/25 10:22:26;;;;;;;;;;;19.30;42.90;;;;;;5054170;28;19916;-71
2022/11/25 10:24:53;;;;;;;;;;;19.30;42.90;;;;;;5054476;28;19932;-70
2022/11/25 10:27:22;;;;;;;;;;;19.30;42.90;;;;;;5042025;28;19936;-72
2022/11/25 10:29:49;;;;;;;;;;;19.30;42.90;;;;;;5054530;28;19913;-70
2022/11/25 10:32:19;;;;;;;;;;;19.30;42.90;;;;;;5043347;28;19909;-71
2022/11/25 10:34:46;;;;;;;;;;;19.30;42.90;;;;;;5039347;28;19985;-70
2022/11/25 10:37:16;;;;;;;;;;;19.30;42.90;;;;;;5040441;28;19932;-68
2022/11/25 10:39:45;;;;;;;;;;;19.30;42.90;;;;;;5033445;28;19909;-71
2022/11/25 10:42:14;;;;;;;;;;;19.30;42.90;;;;;;5045410;28;19909;-71
2022/11/25 10:44:41;;;;;;;;;;;19.30;42.90;;;;;;5040938;28;19913;-71
2022/11/25 10:47:12;;;;;;;;;;;19.30;42.90;;;;;;5038778;28;19913;-71
2022/11/25 10:49:42;;;;;;;;;;;19.30;42.90;;;;;;5044303;28;19913;-70
2022/11/25 10:52:09;;;;;;;;;;;19.30;42.90;;;;;;5038511;28;19915;-70
2022/11/25 10:54:36;;;;;;;;;;;19.30;42.90;;;;;;5040629;28;19918;-70
2022/11/25 10:57:15;;;;;;;;;;;19.30;42.90;;;;;;5037480;28;19909;-71
2022/11/25 10:59:42;;;;;;;;;;;19.30;42.90;;;;;;5058807;28;19913;-70
2022/11/25 11:02:17;;;;;;;;;;;19.30;42.90;;;;;;5026084;28;19916;-69
2022/11/25 11:04:54;;;;;;;;;;;19.30;42.90;;;;;;5059153;28;19993;-69
2022/11/25 11:07:21;;;;;;;;;;;19.30;42.90;;;;;;5041162;28;19909;-70
2022/11/25 11:09:48;;;;;;;;;;;19.30;42.90;;;;;;5041774;28;19920;-70
2022/11/25 11:12:18;;;;;;;;;;;19.30;43.00;;;;;;5051330;28;19947;-66
2022/11/25 11:14:44;;;;;;;;;;;19.40;43.10;;;;;;5030118;28;19932;-72
2022/11/25 11:17:22;;;;;;;;;;;19.40;43.10;;;;;;5048518;28;19916;-70
2022/11/25 11:19:59;;;;;;;;;;;19.40;43.10;;;;;;5047472;28;19927;-71
2022/11/25 11:22:26;;;;;;;;;;;19.40;43.10;;;;;;5033669;28;19932;-72
2022/11/25 11:24:59;;;;;;;;;;;19.40;43.20;;;;;;5047463;28;19936;-71
2022/11/25 11:27:27;;;;;;;;;;;19.40;43.20;;;;;;5057642;28;19964;-76
2022/11/25 11:29:56;;;;;;;;;;;19.40;43.20;;;;;;5044244;28;19913;-70
2022/11/25 11:32:23;;;;;;;;;;;19.40;43.20;;;;;;5041342;28;19916;-70
2022/11/25 11:34:57;;;;;;;;;;;19.40;43.20;;;;;;5046675;28;19981;-70
2022/11/25 11:37:29;;;;;;;;;;;19.40;43.80;;;;;;5041479;28;19932;-70
2022/11/25 11:40:03;;;;;;;;;;;19.40;43.20;;;;;;5053502;28;19920;-68
2022/11/25 11:42:32;;;;;;;;;;;19.40;43.20;;;;;;5029534;28;19913;-69
2022/11/25 11:45:02;;;;;;;;;;;19.40;43.20;;;;;;5033585;28;19941;-71
2022/11/25 11:47:30;;;;;;;;;;;19.40;43.30;;;;;;5040623;28;19933;-68
2022/11/25 11:50:01;;;;;;;;;;;19.40;43.20;;;;;;5040693;28;19921;-69
2022/11/25 11:52:30;;;;;;;;;;;19.40;43.30;;;;;;5040643;28;19913;-66
2022/11/25 11:54:58;;;;;;;;;;;19.40;43.30;;;;;;5041154;28;19910;-66
2022/11/25 11:57:27;;;;;;;;;;;19.50;43.40;;;;;;5040508;28;19910;-66
2022/11/25 11:59:55;;;;;;;;;;;19.50;43.40;;;;;;5040367;28;19984;-69
2022/11/25 12:02:24;;;;;;;;;;;19.50;43.30;;;;;;5050191;28;19916;-69
2022/11/25 12:04:52;;;;;;;;;;;19.50;43.40;;;;;;5060356;28;19909;-66
2022/11/25 12:07:20;;;;;;;;;;;19.50;43.40;;;;;;5060635;28;19909;-65
2022/11/25 12:09:49;;;;;;;;;;;19.50;43.40;;;;;;5055484;28;19913;-69
2022/11/25 12:12:18;;;;;;;;;;;19.50;43.40;;;;;;5059818;28;19909;-69
2022/11/25 12:14:45;;;;;;;;;;;19.50;43.40;;;;;;5060183;28;19921;-67
2022/11/25 12:17:15;;;;;;;;;;;19.50;43.40;;;;;;5043543;28;19940;-67
2022/11/25 12:19:44;;;;;;;;;;;19.50;43.40;;;;;;5060028;28;19976;-67
2022/11/25 12:22:12;;;;;;;;;;;19.50;43.40;;;;;;5043506;28;19909;-67
2022/11/25 12:24:40;;;;;;;;;;;19.50;43.40;;;;;;5041485;28;19913;-67
2022/11/25 12:27:08;;;;;;;;;;;19.50;43.40;;;;;;5043421;28;19909;-66
2022/11/25 12:29:36;;;;;;;;;;;19.50;43.40;;;;;;5043403;28;19916;-67
2022/11/25 12:32:09;;;;;;;;;;;19.50;43.40;;;;;;5060318;28;19913;-67
2022/11/25 12:34:39;;;;;;;;;;;19.50;43.50;;;;;;5044983;28;19996;-71
2022/11/25 12:37:07;;;;;;;;;;;19.50;43.50;;;;;;5036030;28;19913;-71
2022/11/25 12:39:37;;;;;;;;;;;19.50;43.50;;;;;;5040427;28;19931;-71
2022/11/25 12:42:04;;;;;;;;;;;19.50;43.50;;;;;;5030995;28;19945;-70
2022/11/25 12:44:31;;;;;;;;;;;19.50;43.50;;;;;;5037934;28;19917;-71
2022/11/25 12:46:58;;;;;;;;;;;19.50;43.50;;;;;;5035831;28;19917;-70
2022/11/25 12:49:25;;;;;;;;;;;19.50;43.50;;;;;;5027421;28;19956;-71
2022/11/25 12:51:59;;;;;;;;;;;19.50;43.50;;;;;;5038646;28;19909;-70
2022/11/25 12:54:30;;;;;;;;;;;19.50;43.50;;;;;;5046557;28;19910;-70
2022/11/25 12:57:13;;;;;;;;;;;19.50;43.50;;;;;;5035539;28;19913;-69
2022/11/25 12:59:44;;;;;;;;;;;19.50;43.50;;;;;;5040281;28;19909;-71
2022/11/25 13:02:25;;;;;;;;;;;19.50;43.50;;;;;;5039551;28;19913;-71
2022/11/25 13:05:02;;;;;;;;;;;19.50;43.50;;;;;;5036148;28;19972;-70
2022/11/25 13:07:31;;;;;;;;;;;19.50;43.60;;;;;;5032399;28;19913;-70
2022/11/25 13:10:15;;;;;;;;;;;19.50;43.50;;;;;;5044994;28;19980;-71
2022/11/25 13:12:44;;;;;;;;;;;19.50;43.60;;;;;;5048646;28;19948;-69
2022/11/25 13:15:19;;;;;;;;;;;19.50;43.60;;;;;;5045358;28;19924;-71
2022/11/25 13:17:46;;;;;;;;;;;19.50;43.60;;;;;;5046753;28;19909;-71
2022/11/25 13:20:31;;;;;;;;;;;19.50;43.60;;;;;;5043450;28;19935;-72
2022/11/25 13:23:02;;;;;;;;;;;19.50;43.60;;;;;;5031729;28;19909;-70
2022/11/25 13:25:29;;;;;;;;;;;19.50;43.60;;;;;;5044483;28;19932;-70
2022/11/25 13:27:56;;;;;;;;;;;19.50;43.60;;;;;;5062739;28;19916;-70
2022/11/25 13:30:34;;;;;;;;;;;19.50;43.60;;;;;;5047764;28;19976;-68
2022/11/25 13:33:24;;;;;;;;;;;19.50;43.60;;;;;;5044485;28;19936;-69
2022/11/25 13:35:53;;;;;;;;;;;19.50;43.60;;;;;;5045731;28;19923;-69
2022/11/25 13:38:47;;;;;;;;;;;19.50;43.70;;;;;;5048334;28;19932;-70
2022/11/25 13:41:23;;;;;;;;;;;19.50;43.70;;;;;;5062471;28;19921;-71
2022/11/25 13:43:56;;;;;;;;;;;19.50;43.70;;;;;;5038420;28;19910;-70
2022/11/25 13:46:27;;;;;;;;;;;19.60;43.80;;;;;;5054690;28;19909;-69
2022/11/25 13:48:54;;;;;;;;;;;19.60;43.80;;;;;;5072073;28;19909;-70
2022/11/25 13:51:21;;;;;;;;;;;19.60;43.80;;;;;;5046521;28;19932;-69
2022/11/25 13:53:51;;;;;;;;;;;19.60;43.80;;;;;;5033791;28;19948;-71
2022/11/25 13:56:25;;;;;;;;;;;19.60;43.80;;;;;;5053972;28;19909;-73
2022/11/25 13:59:10;;;;;;;;;;;19.60;43.80;;;;;;5034287;28;19913;-73
2022/11/25 14:01:37;;;;;;;;;;;19.60;43.90;;;;;;5024665;28;19913;-73
2022/11/25 14:04:04;;;;;;;;;;;19.60;43.80;;;;;;5044468;28;19936;-72
2022/11/25 14:06:53;;;;;;;;;;;19.60;43.80;;;;;;5047549;28;19909;-73
2022/11/25 14:09:24;;;;;;;;;;;19.60;43.80;;;;;;5049728;28;19927;-73
2022/11/25 14:12:24;;;;;;;;;;;19.60;43.80;;;;;;5042331;28;19912;-66
2022/11/25 14:14:58;;;;;;;;;;;19.60;43.80;;;;;;5066021;28;19939;-72
2022/11/25 14:17:38;;;;;;;;;;;19.60;43.80;;;;;;5050330;28;19917;-73
2022/11/25 14:20:20;;;;;;;;;;;19.60;43.90;;;;;;5062755;28;19921;-69
2022/11/25 14:23:05;;;;;;;;;;;19.60;43.90;;;;;;5053871;28;19910;-72
2022/11/25 14:25:33;;;;;;;;;;;19.60;43.90;;;;;;5050034;28;19913;-70
2022/11/25 14:28:05;;;;;;;;;;;19.60;44.60;;;;;;5057900;28;19915;-70
2022/11/25 14:30:32;;;;;;;;;;;19.60;44.00;;;;;;5041459;28;19931;-70
2022/11/25 14:33:00;;;;;;;;;;;19.60;44.00;;;;;;5072182;28;19913;-70
2022/11/25 14:35:27;;;;;;;;;;;19.60;44.00;;;;;;5051223;28;19974;-70
2022/11/25 14:37:55;;;;;;;;;;;19.60;44.00;;;;;;5044807;28;19909;-71